Time;durP1;ratioP1;P1;durP2;ratioP2;P2;SDS_P1;SDS_P2;PMS_P1;PMS_P2;Temp;Humidity;BMP_temperature;BMP_pressure;BME280_temperature;BME280_humidity;BME280_pressure;Samples;Min_cycle;Max_cycle;Signal;HPM_P1;HPM_P2
2023/03/27 00:00:31;;;;;;;;;;;16.80;61.80;;;;;;9935630;29;93732;-66
2023/03/27 00:05:33;;;;;;;;;;;16.80;62.00;;;;;;9937374;29;94511;-66
2023/03/27 00:10:35;;;;;;;;;;;16.80;62.00;;;;;;9935283;29;93507;-66
2023/03/27 00:15:38;;;;;;;;;;;16.80;62.10;;;;;;9936196;29;92743;-66
2023/03/27 00:20:39;;;;;;;;;;;16.80;62.10;;;;;;9935515;29;92802;-65
2023/03/27 00:25:41;;;;;;;;;;;16.80;62.10;;;;;;9935739;29;93451;-65
2023/03/27 00:30:43;;;;;;;;;;;16.70;62.00;;;;;;9931401;29;96388;-66
2023/03/27 00:35:45;;;;;;;;;;;16.70;62.00;;;;;;9934081;29;93224;-66
2023/03/27 00:40:49;;;;;;;;;;;16.70;62.00;;;;;;9934355;29;94455;-65
2023/03/27 00:45:54;;;;;;;;;;;16.70;62.00;;;;;;9916299;29;93526;-66
2023/03/27 00:50:57;;;;;;;;;;;16.70;62.00;;;;;;9934898;29;94379;-65
2023/03/27 00:56:01;;;;;;;;;;;16.70;61.90;;;;;;9935609;29;94483;-66
2023/03/27 01:01:03;;;;;;;;;;;16.70;62.00;;;;;;9933832;29;94342;-66
2023/03/27 01:06:05;;;;;;;;;;;16.70;61.90;;;;;;9936565;29;93862;-66
2023/03/27 01:11:19;;;;;;;;;;;16.70;61.90;;;;;;9935476;29;93054;-65
2023/03/27 01:16:33;;;;;;;;;;;16.70;61.70;;;;;;9933929;29;93432;-65
2023/03/27 01:21:41;;;;;;;;;;;16.60;61.70;;;;;;9931497;29;96015;-65
2023/03/27 01:26:50;;;;;;;;;;;16.60;61.60;;;;;;9934360;29;94153;-65
2023/03/27 01:32:14;;;;;;;;;;;16.60;61.60;;;;;;9934629;29;93709;-64
2023/03/27 01:37:20;;;;;;;;;;;16.60;61.70;;;;;;9918148;29;94699;-65
2023/03/27 01:42:28;;;;;;;;;;;16.60;61.60;;;;;;9932141;29;92842;-65
2023/03/27 01:47:36;;;;;;;;;;;16.60;61.60;;;;;;9919851;29;94502;-65
2023/03/27 01:52:40;;;;;;;;;;;16.60;61.60;;;;;;9939617;29;94573;-65
2023/03/27 01:57:48;;;;;;;;;;;16.60;61.60;;;;;;9941047;29;92524;-65
2023/03/27 02:03:00;;;;;;;;;;;16.50;61.50;;;;;;9924250;29;94641;-65
2023/03/27 02:08:08;;;;;;;;;;;16.50;61.30;;;;;;9938860;29;94615;-65
2023/03/27 02:13:17;;;;;;;;;;;16.50;62.40;;;;;;9936725;29;95041;-65
2023/03/27 02:18:22;;;;;;;;;;;16.50;61.40;;;;;;9938466;29;93495;-65
2023/03/27 02:23:24;;;;;;;;;;;16.50;61.40;;;;;;9938684;29;94255;-66
2023/03/27 02:28:40;;;;;;;;;;;16.50;61.40;;;;;;9938632;29;93396;-66
2023/03/27 02:33:48;;;;;;;;;;;16.50;61.40;;;;;;9938624;29;93861;-66
2023/03/27 02:38:53;;;;;;;;;;;16.50;61.30;;;;;;9937955;29;92658;-66
2023/03/27 02:44:04;;;;;;;;;;;16.40;61.20;;;;;;9938578;29;94132;-66
2023/03/27 02:49:09;;;;;;;;;;;16.40;61.30;;;;;;9936545;29;93632;-65
2023/03/27 02:54:13;;;;;;;;;;;16.40;61.20;;;;;;9939277;29;95718;-66
2023/03/27 02:59:21;;;;;;;;;;;16.40;61.30;;;;;;9937080;29;93340;-65
2023/03/27 03:04:25;;;;;;;;;;;16.40;61.30;;;;;;9935334;29;96107;-65
2023/03/27 03:09:29;;;;;;;;;;;16.40;61.40;;;;;;9937615;29;93596;-65
2023/03/27 03:14:33;;;;;;;;;;;16.40;61.30;;;;;;9937209;29;93741;-66
2023/03/27 03:19:35;;;;;;;;;;;16.40;61.30;;;;;;9921364;29;93739;-65
2023/03/27 03:24:40;;;;;;;;;;;16.30;61.40;;;;;;9936755;29;94379;-65
2023/03/27 03:29:43;;;;;;;;;;;16.30;61.30;;;;;;9937562;29;94135;-65
2023/03/27 03:34:45;;;;;;;;;;;16.30;61.20;;;;;;9937930;29;93060;-65
2023/03/27 03:39:47;;;;;;;;;;;16.30;61.30;;;;;;9921519;29;92545;-65
2023/03/27 03:44:49;;;;;;;;;;;16.30;61.30;;;;;;9936742;29;93960;-66
2023/03/27 05:02:50;;;;;;;;;;;16.70;61.10;;;;;;10020525;29;95852;-68
2023/03/27 05:07:52;;;;;;;;;;;16.90;60.50;;;;;;10032741;29;94400;-69
2023/03/27 05:12:54;;;;;;;;;;;17.00;60.00;;;;;;10032913;29;93274;-69
2023/03/27 05:17:59;;;;;;;;;;;17.10;60.00;;;;;;10049838;29;93437;-69
2023/03/27 05:23:01;;;;;;;;;;;17.00;59.70;;;;;;10029271;29;93583;-69
2023/03/27 05:28:02;;;;;;;;;;;17.00;59.80;;;;;;10048854;28;94250;-69
2023/03/27 05:33:06;;;;;;;;;;;17.00;59.90;;;;;;10048274;29;93134;-69
2023/03/27 05:38:08;;;;;;;;;;;16.90;59.90;;;;;;10049555;29;93779;-69
2023/03/27 05:43:09;;;;;;;;;;;16.90;60.00;;;;;;10049081;29;94819;-69
2023/03/27 05:48:11;;;;;;;;;;;16.90;60.10;;;;;;10053977;28;93313;-69
2023/03/27 05:53:14;;;;;;;;;;;16.80;60.30;;;;;;10072541;28;95283;-69
2023/03/27 05:58:16;;;;;;;;;;;16.80;60.40;;;;;;10069670;28;93827;-71
2023/03/27 06:03:19;;;;;;;;;;;16.70;62.10;;;;;;10078759;28;93401;-70
2023/03/27 06:08:21;;;;;;;;;;;16.80;62.60;;;;;;10031760;29;93097;-69
2023/03/27 06:13:23;;;;;;;;;;;16.80;62.40;;;;;;10047300;29;94216;-68
2023/03/27 06:18:25;;;;;;;;;;;16.80;62.30;;;;;;10047130;29;93533;-69
2023/03/27 06:23:26;;;;;;;;;;;16.80;62.20;;;;;;10046734;29;93245;-69
2023/03/27 06:28:28;;;;;;;;;;;16.70;62.00;;;;;;10048536;29;93527;-69
2023/03/27 06:33:30;;;;;;;;;;;16.70;61.70;;;;;;10048934;29;94337;-69
2023/03/27 06:38:32;;;;;;;;;;;16.60;61.60;;;;;;10037161;29;93551;-69
2023/03/27 06:43:34;;;;;;;;;;;16.60;61.60;;;;;;10051949;29;95303;-69
2023/03/27 06:48:36;;;;;;;;;;;16.50;61.50;;;;;;10053572;29;94272;-69
2023/03/27 06:53:38;;;;;;;;;;;16.50;61.50;;;;;;10053275;28;94387;-67
2023/03/27 06:58:39;;;;;;;;;;;16.50;61.40;;;;;;10035136;29;94859;-68
2023/03/27 07:03:41;;;;;;;;;;;16.50;61.40;;;;;;10053708;29;94403;-68
2023/03/27 07:08:43;;;;;;;;;;;16.40;61.30;;;;;;10053888;29;93552;-68
2023/03/27 07:13:48;;;;;;;;;;;16.40;61.30;;;;;;10052946;29;93916;-68
2023/03/27 07:18:50;;;;;;;;;;;16.40;61.40;;;;;;10053723;29;94553;-68
2023/03/27 07:23:52;;;;;;;;;;;16.40;61.30;;;;;;10052595;29;94252;-68
2023/03/27 07:28:54;;;;;;;;;;;16.30;61.20;;;;;;10052126;29;93470;-68
2023/03/27 07:33:56;;;;;;;;;;;16.40;61.40;;;;;;10035096;29;98665;-68
2023/03/27 07:38:59;;;;;;;;;;;16.40;61.50;;;;;;10053177;29;94347;-68
2023/03/27 07:44:00;;;;;;;;;;;16.40;61.20;;;;;;10035560;29;93736;-68
2023/03/27 07:49:03;;;;;;;;;;;16.40;61.10;;;;;;10051400;29;93735;-68
2023/03/27 07:54:05;;;;;;;;;;;16.40;61.20;;;;;;10050969;29;94434;-68
2023/03/27 07:59:06;;;;;;;;;;;16.40;61.10;;;;;;10052390;29;94524;-67
2023/03/27 08:04:08;;;;;;;;;;;16.40;61.00;;;;;;10051211;29;93602;-67
2023/03/27 08:09:10;;;;;;;;;;;16.40;60.90;;;;;;10051750;29;93675;-68
2023/03/27 08:14:12;;;;;;;;;;;16.40;60.90;;;;;;10033217;29;93052;-68
2023/03/27 08:19:13;;;;;;;;;;;16.40;60.80;;;;;;10049790;29;93489;-68
2023/03/27 08:24:15;;;;;;;;;;;16.40;60.70;;;;;;10031166;29;96530;-68
2023/03/27 08:29:17;;;;;;;;;;;16.40;60.70;;;;;;10050418;29;93334;-68
2023/03/27 08:34:19;;;;;;;;;;;16.40;60.70;;;;;;10050557;29;93136;-68
2023/03/27 08:39:21;;;;;;;;;;;16.30;60.60;;;;;;10050187;29;93500;-67
2023/03/27 08:44:24;;;;;;;;;;;16.30;60.60;;;;;;10050458;29;94675;-68
2023/03/27 08:49:28;;;;;;;;;;;16.20;61.60;;;;;;10050459;29;94514;-67
2023/03/27 08:54:33;;;;;;;;;;;16.20;60.60;;;;;;10049510;29;93654;-68
2023/03/27 08:59:35;;;;;;;;;;;16.20;60.70;;;;;;10049426;29;92847;-68
2023/03/27 09:04:43;;;;;;;;;;;16.20;60.60;;;;;;10048811;29;93838;-68
2023/03/27 09:09:58;;;;;;;;;;;16.20;60.50;;;;;;10032929;29;94095;-68
2023/03/27 09:15:00;;;;;;;;;;;16.30;60.40;;;;;;10046721;29;97047;-68
2023/03/27 09:20:09;;;;;;;;;;;16.30;60.40;;;;;;10049581;29;94633;-68
2023/03/27 09:25:17;;;;;;;;;;;16.30;60.50;;;;;;10048938;29;93473;-68
2023/03/27 09:30:23;;;;;;;;;;;16.30;60.40;;;;;;10048835;29;93716;-68
2023/03/27 09:35:25;;;;;;;;;;;16.40;60.50;;;;;;10049002;29;93543;-68
2023/03/27 09:40:32;;;;;;;;;;;16.30;60.40;;;;;;10032555;29;93683;-68
2023/03/27 09:45:38;;;;;;;;;;;16.30;60.20;;;;;;10032200;29;94279;-69
2023/03/27 09:50:45;;;;;;;;;;;16.40;60.30;;;;;;10048168;29;93271;-68
2023/03/27 09:56:04;;;;;;;;;;;16.40;60.20;;;;;;10048237;29;94055;-69
2023/03/27 10:01:09;;;;;;;;;;;16.50;60.20;;;;;;10047884;29;93460;-68
2023/03/27 10:06:12;;;;;;;;;;;16.50;60.00;;;;;;10045742;29;95187;-68
2023/03/27 10:11:16;;;;;;;;;;;16.40;59.90;;;;;;10053367;29;94081;-69
2023/03/27 10:16:19;;;;;;;;;;;16.40;60.00;;;;;;10056128;29;93901;-68
2023/03/27 10:21:30;;;;;;;;;;;16.40;60.10;;;;;;10038102;29;93589;-69
2023/03/27 10:26:35;;;;;;;;;;;16.30;60.00;;;;;;10037096;29;93927;-70
2023/03/27 10:31:47;;;;;;;;;;;16.30;60.00;;;;;;10054307;29;94352;-69
2023/03/27 10:36:53;;;;;;;;;;;16.30;59.80;;;;;;10053751;29;94456;-69
2023/03/27 10:41:55;;;;;;;;;;;16.30;60.00;;;;;;10054777;29;92408;-69
2023/03/27 10:46:56;;;;;;;;;;;16.30;60.00;;;;;;10054060;29;93255;-70
2023/03/27 10:52:18;;;;;;;;;;;16.40;60.00;;;;;;10052835;29;93661;-69
2023/03/27 10:57:23;;;;;;;;;;;16.50;60.00;;;;;;10014562;29;95880;-69
2023/03/27 11:02:30;;;;;;;;;;;16.50;60.00;;;;;;10053063;29;114197;-68
2023/03/27 11:07:37;;;;;;;;;;;16.50;59.80;;;;;;10053149;29;93717;-68
2023/03/27 11:12:42;;;;;;;;;;;16.50;59.80;;;;;;10053307;29;93487;-68
2023/03/27 11:17:50;;;;;;;;;;;16.50;59.70;;;;;;10051866;29;93599;-69
2023/03/27 11:22:56;;;;;;;;;;;16.50;59.60;;;;;;10052036;29;93662;-68
2023/03/27 11:28:12;;;;;;;;;;;16.50;59.60;;;;;;10051950;29;93621;-68
2023/03/27 11:33:31;;;;;;;;;;;16.50;59.50;;;;;;10053107;29;93443;-68
2023/03/27 11:38:36;;;;;;;;;;;16.60;59.60;;;;;;10051858;29;93466;-68
2023/03/27 11:43:38;;;;;;;;;;;16.60;59.50;;;;;;10051684;29;94552;-68
2023/03/27 11:48:39;;;;;;;;;;;16.50;59.40;;;;;;10049106;29;94965;-69
2023/03/27 11:53:47;;;;;;;;;;;16.50;59.20;;;;;;10051862;29;93551;-69
2023/03/27 11:58:52;;;;;;;;;;;16.50;59.40;;;;;;10033989;29;94506;-69
2023/03/27 12:04:08;;;;;;;;;;;16.50;60.00;;;;;;10051597;29;94918;-68
2023/03/27 12:09:09;;;;;;;;;;;16.40;59.10;;;;;;10034157;29;93454;-68
2023/03/27 12:14:13;;;;;;;;;;;16.40;59.10;;;;;;10051027;29;92574;-68
2023/03/27 12:19:38;;;;;;;;;;;16.40;59.40;;;;;;10051387;29;93090;-69
2023/03/27 12:24:55;;;;;;;;;;;16.40;59.40;;;;;;10051700;29;93722;-68
2023/03/27 12:30:20;;;;;;;;;;;16.40;59.50;;;;;;10050308;29;93491;-68
2023/03/27 12:35:25;;;;;;;;;;;16.40;59.30;;;;;;10034269;29;94648;-68
2023/03/27 12:40:30;;;;;;;;;;;16.50;59.50;;;;;;10047592;29;95413;-69
2023/03/27 12:45:32;;;;;;;;;;;16.50;59.40;;;;;;10049627;28;93517;-68
2023/03/27 12:50:53;;;;;;;;;;;16.50;59.30;;;;;;10082681;28;93510;-68
2023/03/27 12:56:15;;;;;;;;;;;16.50;59.20;;;;;;10087939;28;94300;-68
2023/03/27 13:01:35;;;;;;;;;;;16.50;59.20;;;;;;10089282;28;94509;-68
2023/03/27 13:07:11;;;;;;;;;;;16.50;59.10;;;;;;10073289;28;94671;-68
2023/03/27 13:12:21;;;;;;;;;;;16.50;59.00;;;;;;10071198;28;93427;-68
2023/03/27 13:17:28;;;;;;;;;;;16.50;59.00;;;;;;10089474;28;92754;-68
2023/03/27 13:22:39;;;;;;;;;;;16.40;58.70;;;;;;10087876;28;94781;-68
2023/03/27 13:27:51;;;;;;;;;;;16.40;58.70;;;;;;10087963;28;93612;-68
2023/03/27 13:33:07;;;;;;;;;;;16.40;59.00;;;;;;10084968;28;95960;-68
2023/03/27 13:38:10;;;;;;;;;;;16.40;59.10;;;;;;10087433;28;93579;-69
2023/03/27 13:43:21;;;;;;;;;;;16.40;59.10;;;;;;10086803;28;94450;-68
2023/03/27 13:48:41;;;;;;;;;;;16.40;59.20;;;;;;10087037;28;93612;-68
2023/03/27 13:54:03;;;;;;;;;;;16.40;59.20;;;;;;10087565;28;93620;-70
2023/03/27 13:59:20;;;;;;;;;;;16.40;59.30;;;;;;10086459;28;93845;-69
2023/03/27 14:04:34;;;;;;;;;;;16.40;59.20;;;;;;10087139;28;93169;-69
2023/03/27 14:09:45;;;;;;;;;;;16.40;59.10;;;;;;10087535;28;92635;-69
2023/03/27 14:15:06;;;;;;;;;;;16.40;59.10;;;;;;10085795;28;94476;-69
2023/03/27 14:20:12;;;;;;;;;;;16.40;59.10;;;;;;10086493;28;93516;-70
2023/03/27 14:25:16;;;;;;;;;;;16.40;59.20;;;;;;10083945;28;96870;-69
2023/03/27 14:30:22;;;;;;;;;;;16.40;59.10;;;;;;10085690;28;93861;-69
2023/03/27 14:35:28;;;;;;;;;;;16.30;59.00;;;;;;10085631;28;94204;-68
2023/03/27 14:40:35;;;;;;;;;;;16.30;59.00;;;;;;10086139;28;94593;-69
2023/03/27 14:45:38;;;;;;;;;;;16.30;59.00;;;;;;10086643;28;95039;-68
2023/03/27 14:50:40;;;;;;;;;;;16.30;59.00;;;;;;10085624;28;95460;-68
2023/03/27 14:55:41;;;;;;;;;;;16.30;59.10;;;;;;10088577;28;93326;-69
2023/03/27 15:00:46;;;;;;;;;;;16.30;59.10;;;;;;10076417;28;93722;-67
2023/03/27 15:05:52;;;;;;;;;;;16.30;59.10;;;;;;10075645;28;93559;-68
2023/03/27 15:10:54;;;;;;;;;;;16.30;59.00;;;;;;10091981;28;94494;-68
2023/03/27 15:15:58;;;;;;;;;;;16.30;59.10;;;;;;10090057;28;96171;-68
2023/03/27 15:21:03;;;;;;;;;;;16.30;59.10;;;;;;10090600;28;93294;-68
2023/03/27 15:26:19;;;;;;;;;;;16.30;59.00;;;;;;10092483;28;94209;-68
2023/03/27 15:31:24;;;;;;;;;;;16.30;59.00;;;;;;10074694;28;94804;-68
2023/03/27 15:36:27;;;;;;;;;;;16.40;59.10;;;;;;10091217;28;93741;-67
2023/03/27 15:41:35;;;;;;;;;;;16.40;59.00;;;;;;10091238;28;94895;-67
2023/03/27 15:46:46;;;;;;;;;;;16.50;58.80;;;;;;10088622;28;93342;-67
2023/03/27 15:51:48;;;;;;;;;;;16.50;58.90;;;;;;10086376;28;93486;-69
2023/03/27 15:56:51;;;;;;;;;;;16.50;59.20;;;;;;10083994;28;94381;-71
2023/03/27 16:02:12;;;;;;;;;;;16.60;61.10;;;;;;10064022;28;93531;-70
2023/03/27 16:07:16;;;;;;;;;;;16.90;63.90;;;;;;10086944;28;95294;-71
2023/03/27 16:12:21;;;;;;;;;;;17.10;65.90;;;;;;10090671;28;94286;-69
2023/03/27 16:17:36;;;;;;;;;;;17.20;62.20;;;;;;10073089;28;93555;-69
2023/03/27 16:22:38;;;;;;;;;;;17.30;61.10;;;;;;10090171;28;94530;-70
2023/03/27 16:27:53;;;;;;;;;;;17.50;60.30;;;;;;10090642;28;94088;-69
2023/03/27 16:32:55;;;;;;;;;;;17.70;59.80;;;;;;10089901;28;94655;-69
2023/03/27 16:37:57;;;;;;;;;;;17.80;59.20;;;;;;10089159;28;93867;-69
2023/03/27 16:42:58;;;;;;;;;;;17.90;59.10;;;;;;10090298;28;92925;-70
2023/03/27 16:48:00;;;;;;;;;;;17.90;59.00;;;;;;10089086;28;94572;-69
2023/03/27 16:53:02;;;;;;;;;;;17.80;58.90;;;;;;10088659;28;92885;-69
2023/03/27 16:58:04;;;;;;;;;;;17.80;59.00;;;;;;10086780;28;95974;-69
2023/03/27 17:03:05;;;;;;;;;;;17.70;58.90;;;;;;10088663;28;93498;-69
2023/03/27 17:08:07;;;;;;;;;;;17.70;59.00;;;;;;10089081;28;94041;-69
2023/03/27 17:13:09;;;;;;;;;;;17.60;59.10;;;;;;10071808;28;93619;-68
2023/03/27 17:18:11;;;;;;;;;;;17.50;59.10;;;;;;10088493;28;93029;-70
2023/03/27 17:23:13;;;;;;;;;;;17.40;59.50;;;;;;10088933;28;93517;-69
2023/03/27 17:28:16;;;;;;;;;;;17.40;59.30;;;;;;10087599;28;94463;-70
2023/03/27 17:33:18;;;;;;;;;;;17.30;59.40;;;;;;10088616;28;93035;-70
2023/03/27 17:38:22;;;;;;;;;;;17.20;60.50;;;;;;10087561;28;93136;-70
2023/03/27 17:43:24;;;;;;;;;;;17.20;59.60;;;;;;10086078;28;94130;-70
2023/03/27 17:48:26;;;;;;;;;;;17.10;59.70;;;;;;10082039;28;95906;-70
2023/03/27 17:53:29;;;;;;;;;;;17.10;59.60;;;;;;10088668;28;93843;-73
2023/03/27 17:58:33;;;;;;;;;;;17.10;60.00;;;;;;10088527;28;93046;-75
2023/03/27 18:03:35;;;;;;;;;;;17.10;60.30;;;;;;10087270;28;93121;-69
2023/03/27 18:08:37;;;;;;;;;;;17.20;59.70;;;;;;10067514;28;94466;-70
2023/03/27 18:13:39;;;;;;;;;;;17.30;59.40;;;;;;10068772;28;94806;-70
2023/03/27 18:18:41;;;;;;;;;;;17.40;60.10;;;;;;10068237;28;93897;-70
2023/03/27 18:23:43;;;;;;;;;;;17.50;58.80;;;;;;10087462;28;92254;-69
2023/03/27 18:28:47;;;;;;;;;;;17.60;58.40;;;;;;10087724;28;94740;-69
2023/03/27 18:33:50;;;;;;;;;;;17.70;58.30;;;;;;10076107;28;94174;-70
2023/03/27 18:38:51;;;;;;;;;;;17.70;58.20;;;;;;10090451;28;96770;-68
2023/03/27 18:43:53;;;;;;;;;;;17.60;58.10;;;;;;10093414;28;92582;-68
2023/03/27 18:48:57;;;;;;;;;;;17.60;59.50;;;;;;10091109;28;93108;-68
2023/03/27 18:53:59;;;;;;;;;;;17.50;58.40;;;;;;10093091;28;94446;-67
2023/03/27 18:59:00;;;;;;;;;;;17.50;58.80;;;;;;10092314;28;93714;-69
2023/03/27 19:04:02;;;;;;;;;;;17.50;59.80;;;;;;10091743;28;93021;-69
2023/03/27 19:09:04;;;;;;;;;;;17.50;59.80;;;;;;10093003;28;94456;-69
2023/03/27 19:14:06;;;;;;;;;;;17.50;59.80;;;;;;10092651;28;94139;-70
2023/03/27 19:19:08;;;;;;;;;;;17.50;59.50;;;;;;10090820;28;93459;-70
2023/03/27 19:24:10;;;;;;;;;;;17.50;59.00;;;;;;10091917;28;93680;-69
2023/03/27 19:29:11;;;;;;;;;;;17.60;58.90;;;;;;10087989;28;95586;-70
2023/03/27 19:34:13;;;;;;;;;;;17.80;58.70;;;;;;10075294;28;93420;-70
2023/03/27 19:39:15;;;;;;;;;;;17.90;58.50;;;;;;10090637;28;93343;-69
2023/03/27 19:44:18;;;;;;;;;;;17.90;58.30;;;;;;10090679;28;92642;-69
2023/03/27 19:49:20;;;;;;;;;;;17.90;58.20;;;;;;10074574;28;92956;-69
2023/03/27 19:54:22;;;;;;;;;;;17.90;58.20;;;;;;10091831;28;93630;-70
2023/03/27 19:59:23;;;;;;;;;;;17.80;58.20;;;;;;10090643;28;93486;-70
2023/03/27 20:04:31;;;;;;;;;;;17.80;58.30;;;;;;10091514;28;93863;-69
2023/03/27 20:09:33;;;;;;;;;;;17.70;58.40;;;;;;10091015;28;93246;-69
2023/03/27 20:14:35;;;;;;;;;;;17.70;59.00;;;;;;10090611;28;94786;-69
2023/03/27 20:19:36;;;;;;;;;;;17.60;59.00;;;;;;10087773;28;95703;-67
2023/03/27 20:24:39;;;;;;;;;;;17.60;59.00;;;;;;10090387;28;93267;-67
2023/03/27 20:29:40;;;;;;;;;;;17.50;58.80;;;;;;10089731;28;94482;-67
2023/03/27 20:34:44;;;;;;;;;;;17.40;58.80;;;;;;10089500;28;93491;-67
2023/03/27 20:39:46;;;;;;;;;;;17.40;58.80;;;;;;10089055;28;93516;-67
2023/03/27 20:44:57;;;;;;;;;;;17.30;58.80;;;;;;10088726;28;94235;-66
2023/03/27 20:50:01;;;;;;;;;;;17.30;58.80;;;;;;10089335;28;94624;-66
2023/03/27 20:55:03;;;;;;;;;;;17.20;58.80;;;;;;10073425;28;93845;-67
2023/03/27 21:00:06;;;;;;;;;;;17.20;59.00;;;;;;10088604;28;94439;-66
2023/03/27 21:05:08;;;;;;;;;;;17.10;58.90;;;;;;10087806;28;93425;-69
2023/03/27 21:10:10;;;;;;;;;;;17.10;58.80;;;;;;10086200;28;97167;-69
2023/03/27 21:15:12;;;;;;;;;;;17.00;58.70;;;;;;10088189;28;93503;-69
2023/03/27 21:20:14;;;;;;;;;;;17.00;58.70;;;;;;10087500;28;94592;-69
2023/03/27 21:25:16;;;;;;;;;;;16.90;58.80;;;;;;10087103;28;94492;-69
2023/03/27 21:30:18;;;;;;;;;;;16.90;58.70;;;;;;10086463;28;93787;-69
2023/03/27 21:35:21;;;;;;;;;;;16.90;58.80;;;;;;10086995;28;93419;-69
2023/03/27 21:40:23;;;;;;;;;;;16.90;58.70;;;;;;10069971;28;93422;-69
2023/03/27 21:45:25;;;;;;;;;;;16.80;58.80;;;;;;10087562;28;92638;-69
2023/03/27 21:50:27;;;;;;;;;;;16.80;58.80;;;;;;10087439;28;93549;-69
2023/03/27 21:55:29;;;;;;;;;;;16.80;58.80;;;;;;10086286;28;93284;-69
2023/03/27 22:00:31;;;;;;;;;;;16.70;58.70;;;;;;10083913;28;95973;-69
2023/03/27 22:05:34;;;;;;;;;;;16.70;58.60;;;;;;10072192;28;93355;-69
2023/03/27 22:10:36;;;;;;;;;;;16.70;58.70;;;;;;10076213;28;93239;-67
2023/03/27 22:15:38;;;;;;;;;;;16.60;58.60;;;;;;10093201;28;94677;-69
2023/03/27 22:20:40;;;;;;;;;;;16.60;58.80;;;;;;10092939;28;93808;-69
2023/03/27 22:25:41;;;;;;;;;;;16.60;58.70;;;;;;10093555;28;94216;-67
2023/03/27 22:30:43;;;;;;;;;;;16.60;58.80;;;;;;10093324;28;94528;-69
2023/03/27 22:35:48;;;;;;;;;;;16.60;58.80;;;;;;10077485;28;93549;-68
2023/03/27 22:40:50;;;;;;;;;;;16.50;58.80;;;;;;10093022;28;93464;-69
2023/03/27 22:45:52;;;;;;;;;;;16.50;58.90;;;;;;10075623;28;94560;-68
2023/03/27 22:50:54;;;;;;;;;;;16.50;59.10;;;;;;10090279;28;97076;-68
2023/03/27 22:55:56;;;;;;;;;;;16.50;59.20;;;;;;10092164;28;93476;-68
2023/03/27 23:00:58;;;;;;;;;;;16.50;59.20;;;;;;10075693;28;93504;-68
2023/03/27 23:06:00;;;;;;;;;;;16.40;59.10;;;;;;10092943;28;93887;-68
2023/03/27 23:11:04;;;;;;;;;;;16.40;59.10;;;;;;10074978;28;92627;-69
2023/03/27 23:16:06;;;;;;;;;;;16.40;59.00;;;;;;10090208;28;93188;-69
2023/03/27 23:21:09;;;;;;;;;;;16.40;60.00;;;;;;10091903;28;93457;-68
2023/03/27 23:26:11;;;;;;;;;;;16.40;58.90;;;;;;10092262;28;93725;-69
2023/03/27 23:31:15;;;;;;;;;;;16.40;58.80;;;;;;10074794;28;94724;-69
2023/03/27 23:36:21;;;;;;;;;;;16.30;58.90;;;;;;10091346;28;93640;-68
2023/03/27 23:41:22;;;;;;;;;;;16.30;58.70;;;;;;10089524;28;97148;-68
2023/03/27 23:46:24;;;;;;;;;;;16.30;58.80;;;;;;10092129;28;94597;-68
2023/03/27 23:51:26;;;;;;;;;;;16.30;58.80;;;;;;10090588;28;94502;-69
2023/03/27 23:56:28;;;;;;;;;;;16.30;58.70;;;;;;10090949;28;93750;-69
